Latest Weather Observations for Fowlers Gap

IDN60801

Issued at 7:03 am EDT Sunday 7 February 2016 (issued every 30 minutes, with the page automatically refreshed every 10 minutes)

About weather observations | Map of weather stations | Latest weather observations for NSW | Other Formats
Station Details ID: 046128 Name: FOWLERS GAP AWS Lat: -31.09 Lon: 141.70 Height: 181.0 m
Data from the previous 72 hours. | See also: Recent months at Fowlers Gap
Date/Time
EDT
Temp
°C
App
Temp
°C
Dew
Point
Rel
Hum
%
Delta-T
°C
Wind Press
QNH
hPa
Press
MSL
hPa
Rain
since 9 am
mm
Dir
 
Spd
km/h
Gust
km/h
Spd
kts
Gust
kts
07/07:00am 20.5 20.9 11.4 56 5.1 CALM 0 0 0 0 1014.2 1013.2 0.0
07/06:30am 20.8 19.6 11.7 56 5.1 WSW 9 13 5 7 1013.9 1012.9 0.0
07/06:00am 21.2 20.3 11.2 53 5.6 WSW 7 15 4 8 1013.4 1012.3 0.0
07/05:30am 21.5 19.8 10.0 48 6.3 SW 9 11 5 6 1013.1 1012.0 0.0
07/05:00am 22.1 21.2 10.6 48 6.4 W 6 7 3 4 1012.7 1011.6 0.0
07/04:30am 22.8 22.1 11.5 49 6.4 W 6 9 3 5 1012.8 1011.7 0.0
07/04:00am 23.2 21.7 11.9 49 6.4 WSW 11 13 6 7 1012.8 1011.7 0.0
07/03:30am 24.0 25.4 14.4 55 5.7 CALM 0 0 0 0 1012.7 1011.6 0.0
07/03:00am 25.0 25.3 15.0 53 6.0 NW 7 9 4 5 1012.9 1011.8 0.0
07/02:30am 24.4 24.0 8.4 36 8.6 CALM 0 2 0 1 1013.0 1011.9 0.0
07/02:00am 25.1 23.4 7.7 33 9.3 N 6 9 3 5 1013.0 1011.9 0.0
07/01:30am 26.1 23.7 7.2 30 10.1 NE 9 11 5 6 1013.1 1012.0 0.0
07/01:00am 27.2 23.7 7.1 28 10.8 ENE 15 22 8 12 1013.0 1011.9 0.0
07/12:30am 27.6 24.9 7.5 28 10.9 SSE 11 15 6 8 1012.8 1011.7 0.0
07/12:00am 28.7 25.2 7.3 26 11.6 SE 15 20 8 11 1012.8 1011.7 0.0
 
Date/Time
EDT
Temp
°C
App
Temp
°C
Dew
Point
Rel
Hum
%
Delta-T
°C
Wind Press
QNH
hPa
Press
MSL
hPa
Rain
since 9 am
mm
Dir
 
Spd
km/h
Gust
km/h
Spd
kts
Gust
kts
06/11:30pm 28.9 25.5 7.5 26 11.6 SE 15 17 8 9 1012.7 1011.6 0.0
06/11:00pm 29.1 25.6 7.1 25 11.9 SE 15 19 8 10 1012.5 1011.4 0.0
06/10:30pm 29.5 25.9 6.8 24 12.2 SE 15 17 8 9 1012.1 1011.0 0.0
06/10:00pm 30.3 26.2 6.2 22 12.9 SSE 17 22 9 12 1011.7 1010.6 0.0
06/09:30pm 30.9 27.1 6.0 21 13.3 SE 15 20 8 11 1011.3 1010.2 0.0
06/09:00pm 31.8 27.9 5.3 19 14.1 SE 15 20 8 11 1011.0 1009.9 0.0
06/08:30pm 32.6 27.7 5.2 18 14.6 SE 20 30 11 16 1010.5 1009.4 0.0
06/08:00pm 33.5 28.6 5.1 17 15.2 SE 20 30 11 16 1010.1 1009.0 0.0
06/07:30pm 33.8 29.9 5.4 17 15.3 SE 15 20 8 11 1009.7 1008.6 0.0
06/07:00pm 34.1 30.3 5.6 17 15.5 ESE 15 24 8 13 1009.4 1008.3 0.0
06/06:30pm 34.6 30.1 6.0 17 15.6 SE 19 30 10 16 1009.1 1008.1 0.0
06/06:00pm 34.6 31.0 5.1 16 15.9 ESE 13 20 7 11 1009.0 1008.0 0.0
06/05:30pm 34.7 31.3 6.1 17 15.7 SSE 13 28 7 15 1009.0 1008.0 0.0
06/05:00pm 33.9 29.4 6.3 18 15.1 SE 19 28 10 15 1009.1 1008.1 0.0
06/04:30pm 33.8 30.0 7.7 20 14.6 SE 17 26 9 14 1009.5 1008.4 0.0
06/04:00pm 33.8 30.6 8.4 21 14.4 S 15 24 8 13 1009.8 1008.7 0.0
06/03:30pm 33.2 29.8 9.3 23 13.7 ESE 17 30 9 16 1010.2 1009.1 0.0
06/03:00pm 33.1 29.5 9.8 24 13.4 ESE 19 26 10 14 1010.6 1009.5 0.0
06/02:30pm 32.7 29.1 10.7 26 12.8 SE 20 30 11 16 1011.0 1009.9 0.0
06/02:00pm 33.1 30.6 9.8 24 13.4 E 13 37 7 20 1011.2 1010.1 0.0
06/01:30pm 32.0 28.8 11.2 28 12.2 SE 19 28 10 15 1011.6 1010.5 0.0
06/01:00pm 32.5 29.6 12.2 29 12.1 E 19 24 10 13 1011.9 1010.8 0.0
06/12:30pm 31.8 30.1 12.6 31 11.5 E 13 22 7 12 1012.3 1011.2 0.0
06/12:00pm 30.4 27.5 12.3 33 10.7 NE 19 28 10 15 1012.7 1011.6 0.0
06/11:30am 30.3 27.5 12.7 34 10.5 ENE 19 24 10 13 1012.8 1011.7 0.0
06/11:00am 30.1 27.3 12.5 34 10.4 E 19 28 10 15 1012.9 1011.8 0.0
06/10:30am 29.1 26.0 12.1 35 10.0 ENE 20 30 11 16 1012.9 1011.8 0.0
06/10:00am 28.5 25.5 12.0 36 9.6 E 19 26 10 14 1012.8 1011.7 0.0
06/09:30am 26.8 22.9 9.6 34 9.6 E 20 32 11 17 1012.7 1011.6 0.0
06/09:00am 26.1 22.0 8.6 33 9.6 ESE 20 28 11 15 1012.6 1011.5 0.0
06/08:30am 24.9 20.3 6.6 31 9.6 SE 20 26 11 14 1012.3 1011.2 0.0
06/08:00am 23.6 19.5 6.0 32 9.0 SSE 17 22 9 12 1012.0 1010.9 0.0
06/07:30am 22.3 19.1 5.3 33 8.5 SSE 11 15 6 8 1011.6 1010.5 0.0
06/07:00am 22.7 19.6 5.6 33 8.7 SSE 11 15 6 8 1011.2 1010.1 0.0
06/06:30am 22.4 19.3 5.4 33 8.6 SSE 11 15 6 8 1010.8 1009.7 0.0
06/06:00am 22.3 18.7 4.8 32 8.7 SSE 13 19 7 10 1010.5 1009.4 0.0
06/05:30am 23.1 19.0 4.6 30 9.2 SSE 15 20 8 11 1010.1 1009.0 0.0
06/05:00am 23.7 19.3 4.6 29 9.6 SSE 17 24 9 13 1010.0 1008.9 0.0
06/04:30am 23.8 19.0 4.7 29 9.6 SSE 19 26 10 14 1010.0 1008.9 0.0
06/04:00am 24.9 19.9 4.6 27 10.3 SSE 20 26 11 14 1009.8 1008.7 0.0
06/03:30am 25.4 20.0 4.5 26 10.6 SE 22 30 12 16 1010.0 1008.9 0.0
06/03:00am 25.7 20.0 4.8 26 10.7 SE 24 30 13 16 1010.1 1009.0 0.0
06/02:30am 26.0 20.2 4.5 25 10.9 SSE 24 32 13 17 1010.4 1009.3 0.0
06/02:00am 26.6 21.2 4.4 24 11.3 SE 22 30 12 16 1010.7 1009.6 0.0
06/01:30am 26.9 21.1 4.6 24 11.4 SE 24 30 13 16 1010.9 1009.8 0.0
06/01:00am 27.1 21.8 4.8 24 11.5 SE 22 32 12 17 1011.0 1009.9 0.0
06/12:30am 27.7 22.0 4.7 23 11.8 SE 24 35 13 19 1011.0 1009.9 0.0
06/12:00am 27.9 22.1 4.2 22 12.1 SE 24 33 13 18 1011.1 1010.0 0.0
 
Date/Time
EDT
Temp
°C
App
Temp
°C
Dew
Point
Rel
Hum
%
Delta-T
°C
Wind Press
QNH
hPa
Press
MSL
hPa
Rain
since 9 am
mm
Dir
 
Spd
km/h
Gust
km/h
Spd
kts
Gust
kts
05/11:30pm 28.4 22.5 4.0 21 12.5 SSE 24 32 13 17 1011.1 1010.0 0.0
05/11:00pm 28.8 23.2 3.6 20 12.8 SSE 22 28 12 15 1011.0 1009.9 0.0
05/10:30pm 29.3 24.1 3.3 19 13.2 SSE 20 28 11 15 1010.7 1009.6 0.0
05/10:00pm 30.0 24.3 3.1 18 13.7 SE 22 30 12 16 1010.4 1009.3 0.0
05/09:30pm 30.6 25.0 3.6 18 13.9 SE 22 32 12 17 1010.0 1008.9 0.0
05/09:00pm 31.3 24.7 4.2 18 14.1 SE 28 41 15 22 1009.7 1008.6 0.0
05/08:30pm 32.0 25.7 5.5 19 14.2 SE 28 41 15 22 1009.3 1008.2 0.0
05/08:00pm 32.8 26.6 6.2 19 14.5 SE 28 39 15 21 1008.8 1007.7 0.0
05/07:30pm 33.3 27.2 6.6 19 14.6 SE 28 39 15 21 1008.3 1007.2 0.0
05/07:00pm 33.8 27.6 7.7 20 14.6 SE 30 44 16 24 1008.0 1006.9 0.0
05/06:30pm 34.6 29.1 7.6 19 15.1 SE 26 39 14 21 1007.9 1006.8 0.0
05/06:00pm 33.9 28.6 8.5 21 14.4 SE 26 37 14 20 1008.1 1007.0 0.0
05/05:30pm 34.3 29.9 8.8 21 14.5 ESE 22 37 12 20 1008.2 1007.1 0.0
05/05:00pm 34.0 29.5 9.9 23 14.0 ESE 24 39 13 21 1008.4 1007.3 0.0
05/04:30pm 34.1 29.6 10.0 23 14.0 ESE 24 41 13 22 1008.8 1007.7 0.0
05/04:00pm 33.8 29.4 10.4 24 13.7 ESE 24 35 13 19 1009.3 1008.2 0.0
05/03:30pm 34.2 29.3 10.1 23 14.0 ESE 26 41 14 22 1009.7 1008.6 0.0
05/03:00pm 34.0 28.7 9.9 23 14.0 ESE 28 43 15 23 1010.0 1008.9 0.0
05/02:30pm 33.9 29.2 9.2 22 14.1 SE 24 35 13 19 1010.1 1009.0 0.0
05/02:00pm 32.6 27.9 9.4 24 13.3 SE 24 46 13 25 1010.5 1009.4 0.0
05/01:54pm 32.7 27.3 9.5 24 13.3 SE 28 46 15 25 1010.7 1009.6 0.0
05/01:30pm 32.5 26.7 9.3 24 13.2 SE 30 43 16 23 1011.1 1010.0 0.0
05/01:00pm 31.6 25.7 9.2 25 12.7 SE 30 44 16 24 1011.4 1010.3 0.0
05/12:30pm 31.2 25.2 10.0 27 12.1 SE 32 43 17 23 1011.8 1010.7 0.0
05/12:00pm 30.4 24.5 10.4 29 11.5 ESE 32 46 17 25 1012.1 1011.0 0.0
05/11:30am 30.0 24.6 11.0 31 11.0 ESE 30 41 16 22 1012.2 1011.1 0.0
05/11:05am 28.6 23.8 11.6 34 9.9 ESE 28 46 15 25 1012.3 1011.2 0.0
05/11:00am 28.5 23.7 11.6 35 9.8 ESE 28 43 15 23 1012.3 1011.2 0.0
05/10:30am 27.7 22.3 12.1 38 9.1 SE 32 46 17 25 1012.5 1011.4 0.0
05/10:00am 27.2 22.0 12.8 41 8.5 SE 32 43 17 23 1012.2 1011.1 0.0
05/09:30am 25.8 20.1 11.9 42 8.0 SE 33 43 18 23 1012.1 1011.0 0.0
05/09:00am 24.8 18.9 11.0 42 7.8 SE 33 44 18 24 1011.9 1010.8 0.0
05/08:30am 23.7 17.8 10.4 43 7.4 SE 32 44 17 24 1011.7 1010.6 0.0
05/08:00am 22.9 16.7 10.0 44 7.1 SE 33 46 18 25 1011.4 1010.3 0.0
05/07:30am 22.7 16.5 9.5 43 7.2 SE 32 44 17 24 1011.1 1010.0 0.0
05/07:00am 22.5 16.6 9.0 42 7.3 SE 30 39 16 21 1010.5 1009.4 0.0
05/06:30am 22.7 16.6 8.4 40 7.6 SSE 30 39 16 21 1010.4 1009.3 0.0
05/06:00am 23.1 16.6 8.0 38 8.0 SSE 32 43 17 23 1010.3 1009.2 0.0
05/05:30am 23.4 16.7 7.5 36 8.4 SSE 32 41 17 22 1010.1 1009.0 0.0
05/05:00am 23.8 17.0 7.0 34 8.8 SSE 32 41 17 22 1010.0 1008.9 0.0
05/04:30am 24.3 17.9 7.0 33 9.1 SSE 30 41 16 22 1009.9 1008.8 0.0
05/04:00am 24.7 18.8 7.4 33 9.2 SSE 28 41 15 22 1009.7 1008.6 0.0
05/03:30am 24.7 18.8 7.4 33 9.2 SSE 28 39 15 21 1009.7 1008.6 0.0
05/03:00am 25.0 18.7 7.2 32 9.4 SSE 30 41 16 22 1009.9 1008.8 0.0
05/02:30am 25.1 19.0 6.8 31 9.6 SSE 28 39 15 21 1010.2 1009.1 0.0
05/02:00am 25.3 19.1 6.0 29 10.0 SSE 28 39 15 21 1010.6 1009.5 0.0
05/01:30am 25.6 19.2 5.2 27 10.5 SSE 28 37 15 20 1010.7 1009.6 0.0
05/01:00am 25.7 19.2 4.8 26 10.7 SSE 28 35 15 19 1011.1 1010.0 0.0
05/12:30am 25.7 19.6 4.8 26 10.6 SSE 26 33 14 18 1011.1 1010.0 0.0
05/12:00am 26.2 19.4 5.2 26 10.8 SSE 30 41 16 22 1011.3 1010.2 0.0
 
Date/Time
EDT
Temp
°C
App
Temp
°C
Dew
Point
Rel
Hum
%
Delta-T
°C
Wind Press
QNH
hPa
Press
MSL
hPa
Rain
since 9 am
mm
Dir
 
Spd
km/h
Gust
km/h
Spd
kts
Gust
kts
04/11:30pm 26.3 20.0 5.8 27 10.7 S 28 37 15 20 1011.4 1010.3 0.0
04/11:00pm 26.6 20.0 7.6 30 10.2 S 32 44 17 24 1011.3 1010.2 0.0
04/10:30pm 27.0 20.8 9.4 33 9.8 SSE 32 43 17 23 1011.2 1010.1 0.0
04/10:00pm 27.4 22.3 10.6 35 9.6 S 28 39 15 21 1011.0 1009.9 0.0
04/09:30pm 27.7 22.3 10.9 35 9.6 SSE 30 39 16 21 1010.8 1009.7 0.0
04/09:00pm 28.0 22.2 10.7 34 9.9 SSE 32 41 17 22 1010.6 1009.5 0.0
04/08:30pm 28.4 22.7 11.0 34 10.0 SSE 32 46 17 25 1010.3 1009.2 0.0
04/08:00pm 29.0 23.2 11.6 34 10.1 SSE 33 44 18 24 1010.1 1009.0 0.0
04/07:30pm 29.5 23.7 11.5 33 10.5 SSE 33 44 18 24 1010.0 1008.9 0.0
04/07:00pm 30.0 24.2 11.5 32 10.8 SSE 33 52 18 28 1009.9 1008.8 0.0
04/06:59pm 29.9 24.1 11.4 32 10.8 SSE 33 52 18 28 1009.7 1008.6 0.0
04/06:30pm 30.0 23.8 11.5 32 10.8 SE 35 43 19 23 1009.7 1008.6 0.0
04/06:00pm 29.9 23.7 11.4 32 10.8 SSE 35 54 19 29 1009.7 1008.6 0.0
04/05:42pm 29.6 23.3 11.2 32 10.7 SSE 35 54 19 29 1009.7 1008.6 0.0
04/05:30pm 30.1 23.4 11.1 31 11.0 SSE 37 54 20 29 1009.8 1008.7 0.0
04/05:09pm 30.3 24.6 11.3 31 11.1 SSE 32 50 17 27 1010.0 1008.9 0.0
04/05:00pm 30.2 24.5 11.2 31 11.1 SSE 32 48 17 26 1010.1 1009.0 0.0
04/04:30pm 29.5 23.1 10.6 31 10.8 SSE 35 54 19 29 1010.1 1009.0 0.0
04/04:00pm 29.3 23.5 10.9 32 10.6 SSE 32 50 17 27 1010.5 1009.4 0.0
04/03:56pm 29.0 23.5 10.6 32 10.5 SSE 30 50 16 27 1010.6 1009.5 0.0
04/03:30pm 28.6 22.5 10.3 32 10.4 SSE 33 46 18 25 1011.1 1010.0 0.0
04/03:00pm 28.8 23.3 10.5 32 10.5 SSE 30 44 16 24 1011.4 1010.3 0.0
04/02:47pm 28.2 22.9 9.9 32 10.3 SSE 28 46 15 25 1011.6 1010.5 0.0
04/02:30pm 27.7 21.9 9.5 32 10.2 SSE 30 43 16 23 1011.8 1010.7 0.0
04/02:10pm 27.6 22.2 9.4 32 10.1 SSE 28 46 15 25 1012.1 1011.0 0.0
04/02:00pm 27.3 21.3 8.7 31 10.2 SSE 30 43 16 23 1012.3 1011.2 0.0
04/01:30pm 26.2 20.3 7.7 31 9.9 S 28 43 15 23 1012.6 1011.5 0.0
04/01:00pm 25.1 18.7 6.8 31 9.6 SSE 30 41 16 22 1012.9 1011.8 0.0
04/12:30pm 24.2 17.2 6.0 31 9.4 SSE 32 46 17 25 1013.4 1012.3 0.0
04/12:00pm 23.5 16.6 6.3 33 8.9 S 32 41 17 22 1013.7 1012.6 0.0
04/11:30am 22.7 15.9 6.9 36 8.2 S 32 43 17 23 1014.1 1013.1 0.0
04/11:00am 21.9 15.0 7.3 39 7.6 S 33 44 18 24 1014.3 1013.3 0.0
04/10:30am 21.1 14.2 7.3 41 7.1 SSE 33 44 18 24 1014.1 1013.1 0.0
04/10:00am 20.8 14.0 7.8 43 6.8 SSE 33 46 18 25 1014.0 1013.0 0.0
04/09:30am 20.2 12.9 7.2 43 6.7 SSE 35 44 19 24 1014.0 1013.0 0.0
04/09:00am 19.7 11.9 8.4 48 5.9 SSE 39 54 21 29 1013.8 1012.7 0.0
04/08:30am 18.9 10.7 8.3 50 5.5 SSE 41 52 22 28 1013.6 1012.5 0.0
04/08:00am 18.7 11.6 8.1 50 5.5 SSE 35 52 19 28 1013.3 1012.2 0.0
04/07:30am 18.5 11.4 8.2 51 5.3 SSE 35 46 19 25 1013.0 1011.9 0.0

Other Formats:

Comma delimited format used in spreadsheet applications
http://www.bom.gov.au/fwo/IDN60801/IDN60801.94686.axf

JavaScript Object Notation format (JSON) in row-major order
http://www.bom.gov.au/fwo/IDN60801/IDN60801.94686.json